createdAt,value
2022-12-03T00:01:26.161Z,3.00
2022-12-03T00:06:27.981Z,3.10
2022-12-03T00:11:27.040Z,2.97
2022-12-03T00:16:26.047Z,2.92
2022-12-03T00:21:25.973Z,3.02
2022-12-03T00:26:26.002Z,2.89
2022-12-03T00:31:25.903Z,2.79
2022-12-03T00:36:25.762Z,2.82
2022-12-03T00:41:25.811Z,2.97
2022-12-03T00:46:25.811Z,2.95
2022-12-03T00:51:25.656Z,2.89
2022-12-03T00:56:25.549Z,2.95
2022-12-03T01:01:27.713Z,2.99
2022-12-03T01:06:25.634Z,3.10
2022-12-03T01:11:25.539Z,3.05
2022-12-03T01:16:25.404Z,3.14
2022-12-03T01:21:25.329Z,2.90
2022-12-03T01:26:25.268Z,2.90
2022-12-03T01:31:25.254Z,3.10
2022-12-03T01:36:25.120Z,2.96
2022-12-03T01:41:25.078Z,3.03
2022-12-03T01:46:25.100Z,3.06
2022-12-03T01:51:24.976Z,3.14
2022-12-03T01:56:24.941Z,3.13
2022-12-03T02:01:24.960Z,2.99
2022-12-03T02:06:24.801Z,2.99
2022-12-03T02:11:24.789Z,3.03
2022-12-03T02:16:24.954Z,3.03
2022-12-03T02:21:26.769Z,2.97
2022-12-03T02:26:24.728Z,3.06
2022-12-03T02:31:24.739Z,2.96
2022-12-03T02:36:24.619Z,2.85
2022-12-03T02:41:24.451Z,3.06
2022-12-03T02:46:24.423Z,2.90
2022-12-03T02:51:24.408Z,3.08
2022-12-03T02:56:24.274Z,2.96
2022-12-03T03:01:24.300Z,2.95
2022-12-03T03:06:24.194Z,2.89
2022-12-03T03:11:24.098Z,3.06
2022-12-03T03:16:24.188Z,2.89
2022-12-03T03:21:24.027Z,2.60
2022-12-03T03:26:23.942Z,2.81
2022-12-03T03:31:23.960Z,2.74
2022-12-03T03:36:23.876Z,2.57
2022-12-03T03:41:23.778Z,2.77
2022-12-03T03:46:23.863Z,2.75
2022-12-03T03:51:23.698Z,2.93
2022-12-03T03:56:23.702Z,2.79
2022-12-03T04:01:23.689Z,2.71
2022-12-03T04:06:23.525Z,2.81
2022-12-03T04:11:23.501Z,2.74
2022-12-03T04:16:23.616Z,2.77
2022-12-03T04:21:23.481Z,2.69
2022-12-03T04:26:23.417Z,2.85
2022-12-03T04:31:23.387Z,2.85
2022-12-03T04:36:23.305Z,2.60
2022-12-03T04:41:23.320Z,2.66
2022-12-03T04:46:23.134Z,2.48
2022-12-03T04:51:23.025Z,2.63
2022-12-03T04:56:25.078Z,2.69
2022-12-03T05:01:23.026Z,2.69
2022-12-03T05:06:22.871Z,2.53
2022-12-03T05:11:22.980Z,2.52
2022-12-03T05:16:22.852Z,2.59
2022-12-03T05:21:23.208Z,2.54
2022-12-03T05:26:22.695Z,2.64
2022-12-03T05:31:22.805Z,2.52
2022-12-03T05:36:22.562Z,2.53
2022-12-03T05:41:22.548Z,2.54
2022-12-03T05:46:22.582Z,2.52
2022-12-03T05:51:22.418Z,2.54
2022-12-03T05:56:22.356Z,2.43
2022-12-03T06:01:22.496Z,2.36
2022-12-03T06:06:22.326Z,2.41
2022-12-03T06:11:22.311Z,2.53
2022-12-03T06:16:31.150Z,2.74
2022-12-03T06:21:22.095Z,2.69
2022-12-03T06:26:22.048Z,2.77
2022-12-03T06:31:22.097Z,2.36
2022-12-03T06:36:23.422Z,2.39
2022-12-03T06:41:21.992Z,2.49
2022-12-03T06:46:22.015Z,2.54
2022-12-03T06:51:21.905Z,2.46
2022-12-03T06:56:22.603Z,2.30
2022-12-03T07:01:21.726Z,2.24
2022-12-03T07:06:21.812Z,2.36
2022-12-03T07:11:21.833Z,2.16
2022-12-03T07:16:23.053Z,2.18
2022-12-03T07:21:21.787Z,2.24
2022-12-03T07:26:21.658Z,2.28
2022-12-03T07:31:21.762Z,2.35
2022-12-03T07:36:21.529Z,2.39
2022-12-03T07:41:21.344Z,2.46
2022-12-03T07:46:21.539Z,2.30
2022-12-03T07:51:21.114Z,2.20
2022-12-03T07:56:21.084Z,2.34
2022-12-03T08:01:21.104Z,2.42
2022-12-03T08:06:21.004Z,2.28
2022-12-03T08:11:20.929Z,2.31
2022-12-03T08:16:20.986Z,2.53
2022-12-03T08:21:20.869Z,2.49
2022-12-03T08:26:20.813Z,2.60
2022-12-03T08:31:20.857Z,2.48
2022-12-03T08:36:20.697Z,2.61
2022-12-03T08:41:20.676Z,2.74
2022-12-03T08:46:20.662Z,2.77
2022-12-03T08:51:20.612Z,2.79
2022-12-03T08:56:20.456Z,2.71
2022-12-03T09:01:20.464Z,2.67
2022-12-03T09:06:20.434Z,2.71
2022-12-03T09:11:20.291Z,2.90
2022-12-03T09:16:20.412Z,2.79
2022-12-03T09:21:20.247Z,2.81
2022-12-03T09:26:20.209Z,3.11
2022-12-03T09:31:20.158Z,3.10
2022-12-03T09:36:20.026Z,3.03
2022-12-03T09:41:19.978Z,3.43
2022-12-03T09:46:19.990Z,3.43
2022-12-03T09:51:19.869Z,3.51
2022-12-03T09:56:19.827Z,3.61
2022-12-03T10:01:19.801Z,3.61
2022-12-03T10:06:19.669Z,3.78
2022-12-03T10:11:19.667Z,3.55
2022-12-03T10:16:19.636Z,3.31
2022-12-03T10:21:19.517Z,3.32
2022-12-03T10:26:19.463Z,3.47
2022-12-03T10:31:19.498Z,3.42
2022-12-03T10:36:19.372Z,3.35
2022-12-03T10:41:19.408Z,3.51
2022-12-03T10:46:19.421Z,3.50
2022-12-03T10:51:19.232Z,3.60
2022-12-03T10:56:19.158Z,3.50
2022-12-03T11:01:19.159Z,3.52
2022-12-03T11:06:19.039Z,3.73
2022-12-03T11:11:18.968Z,3.57
2022-12-03T11:16:19.086Z,3.45
2022-12-03T11:21:18.939Z,3.39
2022-12-03T11:26:19.747Z,3.17
2022-12-03T11:31:18.800Z,3.51
2022-12-03T11:36:31.726Z,3.52
2022-12-03T11:41:19.778Z,3.62
2022-12-03T11:46:18.717Z,3.61
2022-12-03T11:51:18.578Z,3.33
2022-12-03T11:56:18.542Z,3.45
2022-12-03T12:01:18.464Z,3.60
2022-12-03T12:06:18.392Z,3.52
2022-12-03T12:11:18.383Z,3.69
2022-12-03T12:16:27.217Z,3.78
2022-12-03T12:21:18.245Z,3.78
2022-12-03T12:26:18.156Z,3.24
2022-12-03T12:31:18.163Z,3.57
2022-12-03T12:36:18.065Z,3.61
2022-12-03T12:41:18.028Z,3.61
2022-12-03T12:46:48.468Z,3.68
2022-12-03T12:51:18.968Z,3.58
2022-12-03T12:56:17.888Z,3.48
2022-12-03T13:01:18.060Z,3.48
2022-12-03T13:06:17.795Z,3.23
2022-12-03T13:11:17.697Z,3.51
2022-12-03T13:16:18.824Z,3.60
2022-12-03T13:21:17.685Z,3.50
2022-12-03T13:26:31.696Z,3.54
2022-12-03T13:31:18.628Z,3.52
2022-12-03T13:36:17.494Z,3.58
2022-12-03T13:41:17.333Z,3.61
2022-12-03T13:46:17.370Z,3.66
2022-12-03T13:51:17.248Z,3.72
2022-12-03T13:56:17.212Z,3.33
2022-12-03T14:01:17.287Z,3.47
2022-12-03T14:06:17.103Z,3.23
2022-12-03T14:11:17.027Z,3.29
2022-12-03T14:16:17.101Z,3.50
2022-12-03T14:21:16.956Z,3.60
2022-12-03T14:26:16.971Z,3.57
2022-12-03T14:31:16.882Z,3.51
2022-12-03T14:36:16.781Z,3.28
2022-12-03T14:41:16.830Z,3.20
2022-12-03T14:46:16.812Z,2.99
2022-12-03T14:51:16.693Z,3.15
2022-12-03T14:56:16.616Z,3.11
2022-12-03T15:01:16.525Z,2.96
2022-12-03T15:06:16.461Z,3.15
2022-12-03T15:11:16.411Z,3.08
2022-12-03T15:16:16.376Z,2.87
2022-12-03T15:21:16.264Z,3.00
2022-12-03T15:26:16.367Z,2.95
2022-12-03T15:31:16.379Z,2.99
2022-12-03T15:36:16.113Z,3.00
2022-12-03T15:41:16.127Z,3.08
2022-12-03T15:46:17.050Z,2.84
2022-12-03T15:51:15.995Z,2.75
2022-12-03T15:56:15.923Z,2.78
2022-12-03T16:01:15.926Z,2.82
2022-12-03T16:06:15.812Z,2.84
2022-12-03T16:11:15.751Z,2.90
2022-12-03T16:16:15.725Z,2.92
2022-12-03T16:21:15.664Z,2.74
2022-12-03T16:26:15.594Z,2.78
2022-12-03T16:31:15.600Z,2.77
2022-12-03T16:36:15.498Z,2.85
2022-12-03T16:41:15.542Z,2.95
2022-12-03T16:46:15.557Z,2.92
2022-12-03T16:51:15.375Z,2.85
2022-12-03T16:56:15.326Z,2.77
2022-12-03T17:01:15.341Z,2.69
2022-12-03T17:06:15.190Z,2.59
2022-12-03T17:11:15.203Z,2.69
2022-12-03T17:16:15.240Z,2.71
2022-12-03T17:21:15.192Z,2.61
2022-12-03T17:26:14.978Z,2.42
2022-12-03T17:31:14.971Z,2.64
2022-12-03T17:36:14.855Z,2.56
2022-12-03T17:41:14.769Z,2.43
2022-12-03T17:46:14.823Z,2.59
2022-12-03T17:51:14.793Z,2.56
2022-12-03T17:56:14.735Z,2.82
2022-12-03T18:01:15.708Z,2.87
2022-12-03T18:06:14.609Z,2.78
2022-12-03T18:11:14.478Z,2.67
2022-12-03T18:16:14.532Z,2.72
2022-12-03T18:21:14.462Z,2.64
2022-12-03T18:26:14.321Z,2.59
2022-12-03T18:31:14.494Z,2.54
2022-12-03T18:36:15.091Z,2.56
2022-12-03T18:41:14.294Z,2.57
2022-12-03T18:46:31.226Z,2.56
2022-12-03T18:51:15.102Z,2.53
2022-12-03T18:56:13.950Z,2.48
2022-12-03T19:01:14.037Z,2.41
2022-12-03T19:06:17.248Z,2.38
2022-12-03T19:11:14.855Z,2.52
2022-12-03T19:16:13.757Z,2.52
2022-12-03T19:21:13.731Z,2.28
2022-12-03T19:26:13.653Z,2.45
2022-12-03T19:31:13.631Z,2.56
2022-12-03T19:36:13.553Z,2.34
2022-12-03T19:41:13.536Z,2.41
2022-12-03T19:46:13.615Z,2.30
2022-12-03T19:51:33.725Z,2.38
2022-12-03T19:56:14.438Z,2.43
2022-12-03T20:01:13.318Z,2.36
2022-12-03T20:06:13.232Z,2.31
2022-12-03T20:11:13.254Z,2.42
2022-12-03T20:16:13.220Z,2.46
2022-12-03T20:21:13.154Z,2.42
2022-12-03T20:26:13.057Z,2.34
2022-12-03T20:31:13.101Z,2.59
2022-12-03T20:36:12.920Z,2.59
2022-12-03T20:41:12.873Z,2.60
2022-12-03T20:46:12.881Z,2.56
2022-12-03T20:51:12.785Z,2.46
2022-12-03T20:56:12.679Z,2.34
2022-12-03T21:01:15.952Z,2.39
2022-12-03T21:06:12.591Z,2.38
2022-12-03T21:11:14.572Z,2.10
2022-12-03T21:16:13.630Z,2.48
2022-12-03T21:21:12.420Z,2.64
2022-12-03T21:26:12.370Z,2.46
2022-12-03T21:31:12.431Z,2.49
2022-12-03T21:36:12.306Z,2.43
2022-12-03T21:41:12.248Z,2.31
2022-12-03T21:47:09.315Z,2.41
2022-12-03T21:51:13.272Z,2.49
2022-12-03T21:56:12.130Z,2.36
2022-12-03T22:01:12.075Z,2.30
2022-12-03T22:06:15.430Z,2.34
2022-12-03T22:11:12.452Z,2.27
2022-12-03T22:16:11.886Z,2.17
2022-12-03T22:21:11.797Z,2.34
2022-12-03T22:26:11.751Z,2.54
2022-12-03T22:31:11.711Z,2.38
2022-12-03T22:36:18.021Z,2.42
2022-12-03T22:41:12.562Z,2.41
2022-12-03T22:46:11.547Z,2.36
2022-12-03T22:51:11.466Z,2.52
2022-12-03T22:56:11.530Z,2.25
2022-12-03T23:01:11.459Z,2.34
2022-12-03T23:06:11.399Z,2.24
2022-12-03T23:11:11.346Z,2.18
2022-12-03T23:16:11.247Z,2.39
2022-12-03T23:21:11.203Z,2.27
2022-12-03T23:26:11.139Z,2.23
2022-12-03T23:31:11.295Z,2.30
2022-12-03T23:36:11.004Z,2.12
2022-12-03T23:41:10.923Z,2.31
2022-12-03T23:46:10.919Z,2.27
2022-12-03T23:51:10.799Z,2.38
2022-12-03T23:56:10.757Z,2.42
